Yangtze Happiness — VRLA7 — position and weather

sailwx.info

Track history (hours):
 
Tides and Currents Weather Stations Pressure Air Temp Water Temp Dewpoint Dewpoint Depression Visibility Wind Speed Wind Dir Waves Ship Positions

Yangtze Happiness

Last reported at 2017-Nov-08 00:59 UTC. Time now 2017-Nov-23 15:16 UTC.
Position N 36°05' E 014°35'.
Warning: this ship's position is 15 days out of date.

Length 180 m; draft 10.5 m.

Type: Cargo ship. MMSI: 477211700.

Date/timePositionNaut miles runAvg speedWind from/ knotsBaromVisibWave heightAir tempDewpointWater temp
2017-Nov-08 00:59N 36°05' E 014°35'612.9
2017-Nov-08 00:30N 36°07' E 014°28'612.7
2017-Nov-08 00:00N 36°10' E 014°21'612.6
2017-Nov-07 23:30N 36°13' E 014°14'612.8
2017-Nov-07 23:00N 36°16' E 014°06'712.9
2017-Nov-07 22:29N 36°18' E 013°59'612.8
2017-Nov-07 22:00N 36°21' E 013°52'612.8
2017-Nov-07 21:30N 36°24' E 013°45'  
2017-Nov-04 19:46N 35°60' W 005°20'26110.7
2017-Nov-03 19:17N 38°18' W 009°58'312.4
2017-Nov-03 19:00N 38°22' W 009°58'612.5
2017-Nov-03 18:30N 38°28' W 010°00'612.4
2017-Nov-03 18:00N 38°34' W 010°03'612.1
2017-Nov-03 17:30N 38°40' W 010°04'611.8
2017-Nov-03 17:00N 38°45' W 010°05'611.5
2017-Nov-03 16:30N 38°51' W 010°06'611.6
2017-Nov-03 16:00N 38°57' W 010°06'611.6
2017-Nov-03 15:30N 39°03' W 010°06'611.7
2017-Nov-03 15:00N 39°09' W 010°06'611.6
2017-Nov-03 14:30N 39°14' W 010°06'611.8
2017-Nov-03 14:00N 39°20' W 010°06'52212.1
2017-Nov-01 18:49N 47°42' W 006°46'613.5
2017-Nov-01 18:22N 47°47' W 006°41'19511.9
2017-Nov-01 02:00N 49°57' W 002°59'612.4
2017-Nov-01 01:30N 49°59' W 002°50'613.0
2017-Nov-01 01:00N 50°01' W 002°40'713.6
2017-Nov-01 00:30N 50°04' W 002°30'714.2
2017-Nov-01 00:00N 50°06' W 002°20'714.7
2017-Oct-31 23:30N 50°08' W 002°09'815.0
2017-Oct-31 23:00N 50°10' W 001°58'715.0
2017-Oct-31 22:30N 50°12' W 001°46'814.7
2017-Oct-31 21:59N 50°14' W 001°35'714.1
2017-Oct-31 21:30N 50°16' W 001°25'713.6
2017-Oct-31 20:58N 50°18' W 001°14'612.8
2017-Oct-31 20:30N 50°19' W 001°05'612.1
2017-Oct-31 20:00N 50°21' W 000°55'611.3
2017-Oct-31 19:30N 50°23' W 000°47'810.6
2017-Oct-31 18:46N 50°24' W 000°35'310.5
2017-Oct-31 18:30N 50°25' W 000°31'510.5
2017-Oct-31 17:59N 50°27' W 000°23'510.5
2017-Oct-31 17:30N 50°28' W 000°15'510.7
2017-Oct-31 17:00N 50°29' W 000°07'510.8
2017-Oct-31 16:30N 50°31' E 000°01'611.0
2017-Oct-31 15:59N 50°33' E 000°10'511.3
2017-Oct-31 15:30N 50°34' E 000°18'611.8
2017-Oct-31 15:00N 50°36' E 000°27'612.1
2017-Oct-31 14:30N 50°38' E 000°36'612.3
2017-Oct-31 14:00N 50°41' E 000°44'612.5
2017-Oct-31 13:30N 50°45' E 000°52'612.4
2017-Oct-31 13:00N 50°49' E 000°59'612.2
2017-Oct-31 12:30N 50°53' E 001°07'611.8
2017-Oct-31 12:00N 50°57' E 001°14'611.3
2017-Oct-31 11:28N 51°01' E 001°21'510.8
2017-Oct-31 11:00N 51°04' E 001°27'510.5
2017-Oct-31 10:30N 51°07' E 001°34'5 9.9
2017-Oct-31 10:00N 51°11' E 001°40'510.1
2017-Oct-31 09:30N 51°14' E 001°46'510.6
2017-Oct-31 09:00N 51°18' E 001°50'611.1
2017-Oct-31 08:30N 51°23' E 001°54'611.5
2017-Oct-31 08:00N 51°28' E 001°59'612.0
2017-Oct-31 07:30N 51°33' E 002°06'612.3
2017-Oct-31 07:00N 51°37' E 002°12'712.6
2017-Oct-31 06:28N 51°42' E 002°20'1012.9
2017-Oct-31 05:43N 51°49' E 002°30'413.1
2017-Oct-31 05:26N 51°52' E 002°34'713.1
2017-Oct-31 04:54N 51°59' E 002°37'3412.6
2017-Oct-31 02:13N 52°31' E 002°54'311.9
2017-Oct-31 01:59N 52°34' E 002°56'1011.5
2017-Oct-31 01:09N 52°42' E 003°03'211.2
2017-Oct-31 00:59N 52°44' E 003°04'511.1
2017-Oct-31 00:30N 52°49' E 003°08'611.0
2017-Oct-31 00:00N 52°54' E 003°12'611.1
2017-Oct-30 23:28N 52°59' E 003°17'711.3
2017-Oct-30 22:52N 53°05' E 003°20'5211.8
2017-Oct-30 18:31N 53°51' E 003°59'112.4
2017-Oct-30 18:26N 53°52' E 004°00'1112.3
2017-Oct-30 17:33N 53°59' E 004°15'112.4
2017-Oct-30 17:29N 53°59' E 004°16'30811.3
2017-Oct-29 14:09N 57°49' E 010°24'1 8.9
2017-Oct-29 14:00N 57°49' E 010°26'4 8.3
2017-Oct-29 13:30N 57°49' E 010°34'4 7.5
2017-Oct-29 13:00N 57°49' E 010°41'4 6.5
2017-Oct-29 12:25N 57°46' E 010°46'3 7.2
2017-Oct-29 12:00N 57°43' E 010°44'4 7.0
2017-Oct-29 11:30N 57°40' E 010°39'2 5.0
2017-Oct-29 11:00N 57°38' E 010°37'0 0.4
2017-Oct-29 10:14N 57°38' E 010°36'0 0.0
2017-Oct-29 09:50N 57°38' E 010°36'0 0.1
2017-Oct-29 09:23N 57°38' E 010°36'0 0.1
2017-Oct-29 08:56N 57°38' E 010°36'0 0.1
2017-Oct-29 08:29N 57°38' E 010°36'0 0.2
2017-Oct-29 07:59N 57°38' E 010°36'0 0.2
2017-Oct-29 07:29N 57°38' E 010°36'0 0.2
2017-Oct-29 06:59N 57°38' E 010°36'0 0.1
2017-Oct-29 06:29N 57°38' E 010°36'0 0.0
2017-Oct-29 05:59N 57°38' E 010°36'0 0.2
2017-Oct-29 05:26N 57°38' E 010°36'0 0.1
2017-Oct-29 04:59N 57°38' E 010°36'0 0.1
2017-Oct-29 04:29N 57°38' E 010°36'0 0.0
2017-Oct-29 03:47N 57°38' E 010°36'  
Track history (hours):
 
Tides and Currents Weather Stations Pressure Air Temp Water Temp Dewpoint Dewpoint Depression Visibility Wind Speed Wind Dir Waves Ship Positions

Yangtze Happiness

Last reported at 2017-Nov-08 00:59 UTC. Time now 2017-Nov-23 15:16 UTC.
Position N 36°05' E 014°35'.
Warning: this ship's position is 15 days out of date.

Length 180 m; draft 10.5 m.

Type: Cargo ship. MMSI: 477211700.

Date/timePositionNaut miles runAvg speedWind from/ knotsBaromVisibWave heightAir tempDewpointWater temp
2017-Nov-08 00:59N 36°05' E 014°35'612.9
2017-Nov-08 00:30N 36°07' E 014°28'612.7
2017-Nov-08 00:00N 36°10' E 014°21'612.6
2017-Nov-07 23:30N 36°13' E 014°14'612.8
2017-Nov-07 23:00N 36°16' E 014°06'712.9
2017-Nov-07 22:29N 36°18' E 013°59'612.8
2017-Nov-07 22:00N 36°21' E 013°52'612.8
2017-Nov-07 21:30N 36°24' E 013°45'  
2017-Nov-04 19:46N 35°60' W 005°20'26110.7
2017-Nov-03 19:17N 38°18' W 009°58'312.4
2017-Nov-03 19:00N 38°22' W 009°58'612.5
2017-Nov-03 18:30N 38°28' W 010°00'612.4
2017-Nov-03 18:00N 38°34' W 010°03'612.1
2017-Nov-03 17:30N 38°40' W 010°04'611.8
2017-Nov-03 17:00N 38°45' W 010°05'611.5
2017-Nov-03 16:30N 38°51' W 010°06'611.6
2017-Nov-03 16:00N 38°57' W 010°06'611.6
2017-Nov-03 15:30N 39°03' W 010°06'611.7
2017-Nov-03 15:00N 39°09' W 010°06'611.6
2017-Nov-03 14:30N 39°14' W 010°06'611.8
2017-Nov-03 14:00N 39°20' W 010°06'52212.1
2017-Nov-01 18:49N 47°42' W 006°46'613.5
2017-Nov-01 18:22N 47°47' W 006°41'19511.9
2017-Nov-01 02:00N 49°57' W 002°59'612.4
2017-Nov-01 01:30N 49°59' W 002°50'613.0
2017-Nov-01 01:00N 50°01' W 002°40'713.6
2017-Nov-01 00:30N 50°04' W 002°30'714.2
2017-Nov-01 00:00N 50°06' W 002°20'714.7
2017-Oct-31 23:30N 50°08' W 002°09'815.0
2017-Oct-31 23:00N 50°10' W 001°58'715.0
2017-Oct-31 22:30N 50°12' W 001°46'814.7
2017-Oct-31 21:59N 50°14' W 001°35'714.1
2017-Oct-31 21:30N 50°16' W 001°25'713.6
2017-Oct-31 20:58N 50°18' W 001°14'612.8
2017-Oct-31 20:30N 50°19' W 001°05'612.1
2017-Oct-31 20:00N 50°21' W 000°55'611.3
2017-Oct-31 19:30N 50°23' W 000°47'810.6
2017-Oct-31 18:46N 50°24' W 000°35'310.5
2017-Oct-31 18:30N 50°25' W 000°31'510.5
2017-Oct-31 17:59N 50°27' W 000°23'510.5
2017-Oct-31 17:30N 50°28' W 000°15'510.7
2017-Oct-31 17:00N 50°29' W 000°07'510.8
2017-Oct-31 16:30N 50°31' E 000°01'611.0
2017-Oct-31 15:59N 50°33' E 000°10'511.3
2017-Oct-31 15:30N 50°34' E 000°18'611.8
2017-Oct-31 15:00N 50°36' E 000°27'612.1
2017-Oct-31 14:30N 50°38' E 000°36'612.3
2017-Oct-31 14:00N 50°41' E 000°44'612.5
2017-Oct-31 13:30N 50°45' E 000°52'612.4
2017-Oct-31 13:00N 50°49' E 000°59'612.2
2017-Oct-31 12:30N 50°53' E 001°07'611.8
2017-Oct-31 12:00N 50°57' E 001°14'611.3
2017-Oct-31 11:28N 51°01' E 001°21'510.8
2017-Oct-31 11:00N 51°04' E 001°27'510.5
2017-Oct-31 10:30N 51°07' E 001°34'5 9.9
2017-Oct-31 10:00N 51°11' E 001°40'510.1
2017-Oct-31 09:30N 51°14' E 001°46'510.6
2017-Oct-31 09:00N 51°18' E 001°50'611.1
2017-Oct-31 08:30N 51°23' E 001°54'611.5
2017-Oct-31 08:00N 51°28' E 001°59'612.0
2017-Oct-31 07:30N 51°33' E 002°06'612.3
2017-Oct-31 07:00N 51°37' E 002°12'712.6
2017-Oct-31 06:28N 51°42' E 002°20'1012.9
2017-Oct-31 05:43N 51°49' E 002°30'413.1
2017-Oct-31 05:26N 51°52' E 002°34'713.1
2017-Oct-31 04:54N 51°59' E 002°37'3412.6
2017-Oct-31 02:13N 52°31' E 002°54'311.9
2017-Oct-31 01:59N 52°34' E 002°56'1011.5
2017-Oct-31 01:09N 52°42' E 003°03'211.2
2017-Oct-31 00:59N 52°44' E 003°04'511.1
2017-Oct-31 00:30N 52°49' E 003°08'611.0
2017-Oct-31 00:00N 52°54' E 003°12'611.1
2017-Oct-30 23:28N 52°59' E 003°17'711.3
2017-Oct-30 22:52N 53°05' E 003°20'5211.8
2017-Oct-30 18:31N 53°51' E 003°59'112.4
2017-Oct-30 18:26N 53°52' E 004°00'1112.3
2017-Oct-30 17:33N 53°59' E 004°15'112.4
2017-Oct-30 17:29N 53°59' E 004°16'30811.3
2017-Oct-29 14:09N 57°49' E 010°24'1 8.9
2017-Oct-29 14:00N 57°49' E 010°26'4 8.3
2017-Oct-29 13:30N 57°49' E 010°34'4 7.5
2017-Oct-29 13:00N 57°49' E 010°41'4 6.5
2017-Oct-29 12:25N 57°46' E 010°46'3 7.2
2017-Oct-29 12:00N 57°43' E 010°44'4 7.0
2017-Oct-29 11:30N 57°40' E 010°39'2 5.0
2017-Oct-29 11:00N 57°38' E 010°37'0 0.4
2017-Oct-29 10:14N 57°38' E 010°36'0 0.0
2017-Oct-29 09:50N 57°38' E 010°36'0 0.1
2017-Oct-29 09:23N 57°38' E 010°36'0 0.1
2017-Oct-29 08:56N 57°38' E 010°36'0 0.1
2017-Oct-29 08:29N 57°38' E 010°36'0 0.2
2017-Oct-29 07:59N 57°38' E 010°36'0 0.2
2017-Oct-29 07:29N 57°38' E 010°36'0 0.2
2017-Oct-29 06:59N 57°38' E 010°36'0 0.1
2017-Oct-29 06:29N 57°38' E 010°36'0 0.0
2017-Oct-29 05:59N 57°38' E 010°36'0 0.2
2017-Oct-29 05:26N 57°38' E 010°36'0 0.1
2017-Oct-29 04:59N 57°38' E 010°36'0 0.1
2017-Oct-29 04:29N 57°38' E 010°36'0 0.0
2017-Oct-29 03:47N 57°38' E 010°36'  

Dump ship's entire track history